Gatewood, Missouri
Current Conditions -  °F | °C
As of 5:55 PM on Monday 20 Oct 2014 (Local Time) from KARG Reporting Station
Broken Clouds Broken Clouds  
Wind Chill: 72°   Ceiling: 5000
Heat Index: 72°   Visibility: 10mi
Dew Point: 55°   Wind: 8mph
Humidity: 57%   Direction: 240°WSW
Pressure: 29.98"   Gusts: NA
Location:  36.58°N, 91.09°W
Report Text: KARG 202255Z AUTO 24007KT 10SM BKN050 22/13 A2998 RMK AO1
Loading
Personal Weather Stations






























Interactive Weather Map
Tropical Storm Tracking
New forecast layout! Learn more

10-Day Weather Forecast

Advertisements
Track Severe Weather on mobile